PY4AW-10 messages


fromtotime message
PU1PCR-9 PY4AW-10 04/29 22:07:26z Reply boa noite davi{84
PY4AW-10 PU1PCR-9 04/29 20:47:11z Send another boa tarde{93
PU1PCR-9 PY4AW-10 04/29 20:24:32z Reply boa tarde {70
PU1PCR-9 PY4AW-10 04/29 15:45:11z Reply boa tarde {68
PY4AW-10 PU2PYC-7 04/27 02:17:57z Send another grato pelo qso, boa noite 73{92
PY4AW-10 PU2PYC-7 04/27 02:12:28z Send another grato pelo qso, boa noite 73{91
KQ4OWO-1 PY4AW-10 04/24 22:41:53z Reply nice to meet you{76
KQ4OWO-1 PY4AW-10 04/24 22:39:35z Reply My name is travis i am not sure how your beacon got to my radio but{74
PY4AW-10 KQ4OWO-1 04/24 21:54:39z Send another My name is David and yours?{90
KQ4OWO-1 PY4AW-10 04/24 21:54:05z Reply ACK
PY4AW-10 KQ4OWO-1 04/24 21:53:51z Send another Hello from Southeast Brazil{89
PY4AW-10 PU2PYC-7 04/24 21:53:18z Send another Hello from Southeast Brazil{88
KQ4OWO-1 PY4AW-10 04/24 21:51:24z Reply Hello from virgina USA{73
PY4AW-10 PU2PYC-7 04/24 21:18:02z Send another acho que as msgs nao chegam pra vc{87
PY4AW-10 PU2PYC-7 04/24 21:15:11z Send another chegou no destino?{86
PU2PYC-7 PY4AW-10 04/24 21:12:57z Reply AA:Esta eh uma resposta automatica! Respondo em breve
PY4AW-10 PU2PYC-7 04/24 21:12:28z Send another boa noite{85
PU1PCR-5 PY4AW-10 04/12 16:31:07z Reply 73{7
PU1PCR-5 PY4AW-10 04/12 16:31:04z Reply Ok{6
PU1PCR-5 PY4AW-10 04/12 16:30:58z Reply E ai fez ft8{5
PY4AW-10 PU1PCR-5 04/12 16:30:55z Send another 73{84
PY4AW-10 PU1PCR-5 04/12 16:30:52z Send another Dias vou ter que sair agora,+ tarde falamos{83
PU1PCR-5 PY4AW-10 04/12 16:29:39z Reply Mandei para o -7{4
PU1PCR-5 PY4AW-10 04/12 16:29:24z Reply Hj estou fora{3
PY4AW-10 PU1PCR-5 04/12 16:27:55z Send another Ola Dias,bom domingo pra vcs todos ai em casa{82
PU1PCR-5 PY4AW-10 04/12 16:21:48z Reply Boa tarde meu amigo {2
PU1PCR-5 PY4AW-10 04/12 16:21:31z Reply Hope{1
PY4AW-10 PY4BN-7 04/10 20:01:51z Send another saindo do batente agora,sextou!{81
PY4AW-10 PY4BN-7 04/10 20:00:48z Send another fala maraca{80
PU1PCR-9 PY4AW-10 04/07 15:45:39z Reply tst {17
PY4AW-10 PU1PCR-9 04/07 15:43:44z Send another e essa chegou?{79
PY4AW-10 PU1PCR-9 04/07 15:42:38z Send another agora servidor do ronualdo, chegou?{78
PY4AW-10 PU1PCR-9 04/07 15:35:03z Send another vou te chamar no radio{77
PY4AW-10 PU1PCR-9 04/07 15:34:50z Send another mudei de servidor agora chegou{76
PU1PCR-9 PY4AW-10 04/07 15:34:29z Reply os meus estao?{16
PY4AW-10 PU1PCR-9 04/07 15:33:52z Send another por ai dias?{75
PU1PCR-9 PY4AW-10 04/07 15:32:46z Reply sim {15
PY4AW-10 PU1PCR-9 04/07 15:31:49z Send another dias chegou agora?{74
PY4AW-10 PU1PCR-9 04/07 15:28:52z Send another aqui sufixo 10{73
PU1PCR-9 PY4AW-10 04/07 15:28:30z Reply mandei para os dois {12
PY4AW-10 PU1PCR-9 04/07 15:27:30z Send another agora outro app, chegou?{72
PU1PCR-9 PY4AW-10 04/07 15:27:14z Reply ok {11
PY4AW-10 PU1PCR-9 04/07 15:26:06z Send another Dias ta por ai?{71
PU1PCR PY4AW-10 03/16 01:39:47z Reply e ai? deu certo!{63
PY4AW-10 PU1PCR 03/12 18:41:58z Send another ainda apanhando aqui{70
PY4AW-10 PU1PCR 03/12 18:40:55z Send another deu sim!{69
PU1PCR PY4AW-10 03/12 17:38:52z Reply e ai? deu certo!{61
PU1PCR PY4AW-10 03/12 17:37:15z Reply boa tarde{60
APRSBR PY4AW-10 03/10 22:20:59z Reply Temp: 22.0C - Vento Dir: 57 - Vento Vel: 1.6 Kmh - Humidade: 88% - Cond: Nublado
PY4AW-10 APRSBR 03/10 22:20:49z Send another clima patrocinio{68
PY4AW-10 APRSBR 03/10 22:18:31z Send another ping{67
PU1PCR PY4AW-10 03/10 21:27:27z Reply okk{57
PY4AW-10 PU1PCR 03/10 21:26:45z Send another oi{66
PY4AW-10 PU1PCR 03/10 21:25:05z Send another ta por ai dias?{65
PY4AW-10 PU1PCR 03/10 21:23:34z Send another ta por ai dias?{64
PY4AW-10 PU1PCR 03/10 21:22:13z Send another opa{63
PU1PCR PY4AW-10 03/10 21:22:01z Reply naoo {56
PY4AW-10 PU1PCR 03/10 21:21:01z Send another opa{62
PU1PCR PY4AW-10 03/10 21:01:33z Reply sim {55
PY4AW-10 PU1PCR 03/01 00:16:38z Send another deu enchente?{61
PU1PCR PY4AW-10 03/01 00:15:14z Reply sim {44
PY4AW-10 PU1PCR 03/01 00:14:32z Send another ta chvendo ai?{60
PY4AW-10 PU4DEZ-10 02/28 23:31:45z Send another boa noite Itamar{59
PY4AW-10 PY4IG-10 02/28 21:45:18z Send another boa tarde{58
PY4AW-10 PY4IG-5 02/28 20:24:12z Send another bom dia{57
APRSBR PY4AW-10 02/28 20:23:13z Reply Temp: 24.3C - Vento Dir: 201 - Vento Vel: 3.2 Kmh - Humidade: 79% - Cond: Nublado
PY4AW-10 APRSBR 02/28 20:23:05z Send another clima patrocinio{56
APRSBR PY4AW-10 02/28 20:22:54z Reply PONG!
PY4AW-10 APRSBR 02/28 20:22:48z Send another ping{55
PY4AW-10 PY4AW-9 02/28 16:38:49z Send another ?APRSS
PY4AW-10 PY4AW-9 02/28 16:37:48z Send another ?APRST
APRSBR PY4AW-10 02/28 16:30:28z Reply Temp: 25.4C - Vento Dir: 225 - Vento Vel: 2.7 Kmh - Humidade: 75% - Cond: Nublado
PY4AW-10 APRSBR 02/28 16:30:19z Send another clima patrocinio{54
PY4AW-10 APRSBR 02/28 16:29:56z Send another PING{53
PY4AW-10 APRSBR 02/26 12:44:17z Send another ping{52